• Join FlightAware (Why Join?)
  • Login
  • US Flag 
03:06PM EDT


 

Airport Tracker/Info


-or-


 

Live Flight TrackerFlight Track Log ✈ CSN6766 ✈ 22-Jul-2013 ✈ ZSPD / PVG - ZJHK / HAK

Flight Track Log - Related Links

Times and Time Zones

All times are in EDT time to prevent confusion due to time zone crossing. See the CSN6766 flight status page for this flight to view local times or setup timezone preferences in your user account.

Time Position Orientation Groundspeed Altitude Reporting Facility
EDT Latitude Longitude Course Direction KTS MPH feet Rate Location/Type
11:14AM 31.0527 121.6873 225° Southwest  Level Estimated
11:15AM 30.9625 121.5825 225° Southwest  Level Estimated
11:16AM 30.8722 121.4778 225° Southwest  Level Estimated
11:17AM 30.7819 121.3734 225° Southwest  Level Estimated
11:18AM 30.6914 121.2691 225° Southwest  Level Estimated
11:19AM 30.6009 121.1650 225° Southwest  Level Estimated
11:20AM 30.5103 121.0612 225° Southwest  Level Estimated
11:21AM 30.4196 120.9575 225° Southwest  Level Estimated
11:22AM 30.3288 120.8540 225° Southwest  Level Estimated
11:23AM 30.2379 120.7507 224° Southwest  Level Estimated
11:24AM 30.1470 120.6476 224° Southwest  Level Estimated
11:25AM 30.0560 120.5447 224° Southwest  Level Estimated
11:26AM 29.9649 120.4420 224° Southwest  Level Estimated
11:27AM 29.8737 120.3394 224° Southwest  Level Estimated
11:28AM 29.7824 120.2371 224° Southwest  Level Estimated
11:29AM 29.6911 120.1349 224° Southwest  Level Estimated
11:30AM 29.5997 120.0330 224° Southwest  Level Estimated
11:31AM 29.5082 119.9312 224° Southwest  Level Estimated
11:32AM 29.4166 119.8296 224° Southwest  Level Estimated
11:33AM 29.3249 119.7281 224° Southwest  Level Estimated
11:34AM 29.2332 119.6269 224° Southwest  Level Estimated
11:35AM 29.1414 119.5258 224° Southwest  Level Estimated
11:36AM 29.0495 119.4249 224° Southwest  Level Estimated
11:37AM 28.9576 119.3242 224° Southwest  Level Estimated
11:38AM 28.8656 119.2237 224° Southwest  Level Estimated
11:39AM 28.7735 119.1234 224° Southwest  Level Estimated
11:40AM 28.6813 119.0232 224° Southwest  Level Estimated
11:41AM 28.5891 118.9232 224° Southwest  Level Estimated
11:42AM 28.4967 118.8234 224° Southwest  Level Estimated
11:43AM 28.4043 118.7238 224° Southwest  Level Estimated
11:44AM 28.3119 118.6243 223° Southwest  Level Estimated
11:45AM 28.2193 118.5250 223° Southwest  Level Estimated
11:46AM 28.1267 118.4259 223° Southwest  Level Estimated
11:47AM 28.0340 118.3270 223° Southwest  Level Estimated
11:48AM 27.9413 118.2282 223° Southwest  Level Estimated
11:49AM 27.8485 118.1296 223° Southwest  Level Estimated
11:50AM 27.7556 118.0311 223° Southwest  Level Estimated
11:51AM 27.6626 117.9329 223° Southwest  Level Estimated
11:52AM 27.5696 117.8347 223° Southwest  Level Estimated
11:53AM 27.4765 117.7368 223° Southwest  Level Estimated
11:54AM 27.3833 117.6390 223° Southwest  Level Estimated
11:55AM 27.2901 117.5414 223° Southwest  Level Estimated
11:56AM 27.1968 117.4440 223° Southwest  Level Estimated
11:57AM 27.1034 117.3467 223° Southwest  Level Estimated
11:58AM 27.0100 117.2496 223° Southwest  Level Estimated
11:59AM 26.9165 117.1526 223° Southwest  Level Estimated
12:00PM 26.8229 117.0558 223° Southwest  Level Estimated
12:01PM 26.7293 116.9592 223° Southwest  Level Estimated
12:02PM 26.6356 116.8627 223° Southwest  Level Estimated
12:03PM 26.5418 116.7664 223° Southwest  Level Estimated
12:04PM 26.4480 116.6702 223° Southwest  Level Estimated
12:05PM 26.3541 116.5742 223° Southwest  Level Estimated
12:06PM 26.2601 116.4783 222° Southwest  Level Estimated
12:07PM 26.1661 116.3826 222° Southwest  Level Estimated
12:08PM 26.0720 116.2871 222° Southwest  Level Estimated
12:09PM 25.9778 116.1917 222° Southwest  Level Estimated
12:10PM 25.8836 116.0965 222° Southwest  Level Estimated
12:11PM 25.7894 116.0014 222° Southwest  Level Estimated
12:12PM 25.6950 115.9064 222° Southwest  Level Estimated
12:13PM 25.6006 115.8117 222° Southwest  Level Estimated
12:14PM 25.5062 115.7170 222° Southwest  Level Estimated
12:15PM 25.4116 115.6225 222° Southwest  Level Estimated
12:16PM 25.3171 115.5282 222° Southwest  Level Estimated
12:17PM 25.2224 115.4340 222° Southwest  Level Estimated
12:18PM 25.1277 115.3400 222° Southwest  Level Estimated
12:19PM 25.0330 115.2461 222° Southwest  Level Estimated
12:20PM 24.9381 115.1523 222° Southwest  Level Estimated
12:21PM 24.8433 115.0587 222° Southwest  Level Estimated
12:22PM 24.7483 114.9652 222° Southwest  Level Estimated
12:23PM 24.6534 114.8719 222° Southwest  Level Estimated
12:24PM 24.5583 114.7787 222° Southwest  Level Estimated
12:25PM 24.4632 114.6857 222° Southwest  Level Estimated
12:26PM 24.3680 114.5928 222° Southwest  Level Estimated
12:27PM 24.2728 114.5000 222° Southwest  Level Estimated
12:28PM 24.1775 114.4074 222° Southwest  Level Estimated
12:29PM 24.0822 114.3149 222° Southwest  Level Estimated
12:30PM 23.9868 114.2226 222° Southwest  Level Estimated
12:31PM 23.8914 114.1304 221° Southwest  Level Estimated
12:32PM 23.7959 114.0383 221° Southwest  Level Estimated
12:33PM 23.7003 113.9464 221° Southwest  Level Estimated
12:34PM 23.6047 113.8546 221° Southwest  Level Estimated
12:35PM 23.5091 113.7629 221° Southwest  Level Estimated
12:36PM 23.4133 113.6714 221° Southwest  Level Estimated
12:37PM 23.3176 113.5800 221° Southwest  Level Estimated
12:38PM 23.2218 113.4887 221° Southwest  Level Estimated
12:39PM 23.1259 113.3976 221° Southwest  Level Estimated
12:40PM 23.0300 113.3065 221° Southwest  Level Estimated
12:41PM 22.9340 113.2157 221° Southwest  Level Estimated
12:42PM 22.8379 113.1249 221° Southwest  Level Estimated
12:43PM 22.7419 113.0343 221° Southwest  Level Estimated
12:44PM 22.6457 112.9438 221° Southwest  Level Estimated
12:45PM 22.5496 112.8534 221° Southwest  Level Estimated
12:46PM 22.4533 112.7632 221° Southwest  Level Estimated
12:47PM 22.3570 112.6731 221° Southwest  Level Estimated
12:48PM 22.2607 112.5831 221° Southwest  Level Estimated
12:49PM 22.1643 112.4932 221° Southwest  Level Estimated
12:50PM 22.0679 112.4035 221° Southwest  Level Estimated
12:51PM 21.9714 112.3138 221° Southwest  Level Estimated
12:52PM 21.8749 112.2243 221° Southwest  Level Estimated
12:53PM 21.7783 112.1349 221° Southwest  Level Estimated
12:54PM 21.6817 112.0457 221° Southwest  Level Estimated
12:55PM 21.5850 111.9566 221° Southwest  Level Estimated
12:56PM 21.4883 111.8675 221° Southwest  Level Estimated
12:57PM 21.3916 111.7786 221° Southwest  Level Estimated
12:58PM 21.2948 111.6898 221° Southwest  Level Estimated
12:59PM 21.1979 111.6012 220° Southwest  Level Estimated
01:00PM 21.1010 111.5126 220° Southwest  Level Estimated
01:01PM 21.0040 111.4242 220° Southwest  Level Estimated
01:02PM 20.9070 111.3358 220° Southwest  Level Estimated
01:03PM 20.8100 111.2476 220° Southwest  Level Estimated
01:04PM 20.7129 111.1595 220° Southwest  Level Estimated
01:05PM 20.6158 111.0715 220° Southwest  Level Estimated
01:06PM 20.5186 110.9837 220° Southwest  Level Estimated
01:07PM 20.4214 110.8959 220° Southwest  Level Estimated
01:08PM 20.3241 110.8083 220° Southwest  Level Estimated
01:09PM 20.2268 110.7207 220° Southwest  Level Estimated
01:10PM 20.1295 110.6333 220° Southwest  Level Estimated
01:11PM 20.0321 110.5460 220° Southwest  Level Estimated
01:12PM 19.9349 110.4590 220° Southwest  Level Estimated
01:13PM 19.9349 110.4590 167° South  Level Estimated
01:14PM 19.9349 110.4590 167° South  Level Estimated
01:15PM 19.9349 110.4590 167° South  Level Estimated
01:16PM 19.9349 110.4590 167° South  Level Estimated
01:17PM 19.9349 110.4590 167° South  Level Estimated
01:18PM 19.9349 110.4590 167° South  Level Estimated
01:19PM 19.9349 110.4590 167° South  Level Estimated
01:20PM 19.9349 110.4590 167° South  Level Estimated
01:21PM 19.9349 110.4590 167° South  Level Estimated
01:22PM 19.9349 110.4590 167° South  Level Estimated
01:23PM 19.9349 110.4590 167° South  Level Estimated
01:24PM 19.9349 110.4590 167° South  Level Estimated
01:25PM 19.9349 110.4590 167° South  Level Estimated
01:26PM 19.9349 110.4590 167° South  Level Estimated
01:27PM 19.9349 110.4590 167° South  Level Estimated
01:28PM 19.9349 110.4590 167° South  Level Estimated
01:29PM 19.9349 110.4590 167° South  Level Estimated
01:30PM 19.9349 110.4590 167° South  Level Estimated